Time;durP1;ratioP1;P1;durP2;ratioP2;P2;SDS_P1;SDS_P2;PMS_P1;PMS_P2;Temp;Humidity;BMP_temperature;BMP_pressure;BME280_temperature;BME280_humidity;BME280_pressure;Samples;Min_cycle;Max_cycle;Signal;HPM_P1;HPM_P2
2021/10/30 05:33:00;;;;;;;29.00;26.40;;;4.80;99.90;;;;;;5126864;23;20496;-74
2021/10/30 05:35:27;;;;;;;28.33;26.07;;;4.80;99.90;;;;;;4988106;28;20457;-72
2021/10/30 05:37:54;;;;;;;28.10;25.70;;;4.80;99.90;;;;;;4991482;28;20654;-74
2021/10/30 05:40:20;;;;;;;29.00;26.27;;;4.80;99.90;;;;;;4991918;28;20817;-74
2021/10/30 05:42:47;;;;;;;29.07;26.43;;;4.80;99.90;;;;;;4989552;28;20459;-73
2021/10/30 05:45:14;;;;;;;27.90;24.77;;;4.80;99.90;;;;;;4980701;28;20487;-74
2021/10/30 05:47:41;;;;;;;27.70;25.20;;;4.80;99.90;;;;;;4971888;28;20867;-72
2021/10/30 05:50:10;;;;;;;30.77;27.57;;;4.80;99.90;;;;;;4981965;28;20498;-73
2021/10/30 05:52:37;;;;;;;27.00;24.70;;;4.80;99.90;;;;;;4972185;28;20463;-74
2021/10/30 05:55:04;;;;;;;28.07;25.63;;;4.90;99.90;;;;;;4972075;28;20503;-74
2021/10/30 05:57:31;;;;;;;26.93;24.50;;;4.90;99.90;;;;;;4971487;28;20490;-74
2021/10/30 05:59:58;;;;;;;26.83;24.73;;;4.90;99.90;;;;;;4971500;28;20462;-74
2021/10/30 06:02:24;;;;;;;26.73;24.27;;;4.90;99.90;;;;;;4971215;28;20462;-74
2021/10/30 06:04:53;;;;;;;27.93;25.60;;;4.90;99.90;;;;;;4971491;28;20472;-75
2021/10/30 06:07:21;;;;;;;25.03;23.03;;;4.90;99.90;;;;;;4971433;28;20459;-75
2021/10/30 06:09:48;;;;;;;27.63;24.87;;;4.90;99.90;;;;;;4971387;28;20455;-74
2021/10/30 06:12:14;;;;;;;26.50;24.20;;;4.90;99.90;;;;;;4971324;28;20454;-75
2021/10/30 06:14:41;;;;;;;29.30;26.80;;;5.00;99.90;;;;;;4971137;28;20793;-74
2021/10/30 06:17:08;;;;;;;27.90;25.50;;;5.00;99.90;;;;;;4971104;28;20494;-74
2021/10/30 06:19:35;;;;;;;27.70;25.10;;;5.00;99.90;;;;;;4971494;28;20485;-75
2021/10/30 06:22:01;;;;;;;27.13;24.77;;;5.00;99.90;;;;;;4971162;28;20499;-76
2021/10/30 06:24:30;;;;;;;27.20;25.00;;;5.00;99.90;;;;;;4970906;28;20538;-73
2021/10/30 06:26:56;;;;;;;24.40;22.50;;;5.00;99.90;;;;;;4971159;28;20818;-74
2021/10/30 06:29:24;;;;;;;26.30;23.93;;;5.10;99.90;;;;;;4970836;28;20938;-74
2021/10/30 06:31:51;;;;;;;24.00;22.00;;;5.20;99.90;;;;;;4970943;28;20487;-74
2021/10/30 06:34:18;;;;;;;27.60;25.00;;;5.20;99.90;;;;;;4971120;28;20452;-74
2021/10/30 06:36:45;;;;;;;25.53;23.37;;;5.20;99.90;;;;;;4970913;28;20488;-75
2021/10/30 06:39:11;;;;;;;29.20;26.40;;;5.20;99.90;;;;;;4970842;28;20478;-74
2021/10/30 06:41:39;;;;;;;26.63;24.37;;;5.30;99.90;;;;;;4970929;28;20459;-75
2021/10/30 06:44:06;;;;;;;28.70;26.17;;;5.40;99.90;;;;;;4971095;28;20464;-75
2021/10/30 06:46:33;;;;;;;26.17;23.93;;;5.50;99.90;;;;;;4971013;28;20459;-74
2021/10/30 06:49:00;;;;;;;26.13;23.83;;;5.70;99.90;;;;;;4970845;28;20464;-75
2021/10/30 06:51:27;;;;;;;26.27;23.90;;;5.90;99.90;;;;;;4970902;28;20461;-75
2021/10/30 06:53:53;;;;;;;22.50;20.53;;;6.10;99.90;;;;;;4970935;28;20463;-75
2021/10/30 06:56:20;;;;;;;23.43;21.33;;;6.40;99.90;;;;;;4971003;28;20541;-74
2021/10/30 06:58:49;;;;;;;23.13;21.33;;;6.60;99.90;;;;;;4970823;28;20506;-74
2021/10/30 07:01:17;;;;;;;24.10;22.20;;;6.80;99.90;;;;;;4972998;28;20463;-75
2021/10/30 07:03:43;;;;;;;24.57;22.57;;;6.80;99.90;;;;;;4974777;28;20811;-74
2021/10/30 07:06:10;;;;;;;22.90;20.90;;;7.00;99.90;;;;;;4974699;28;20458;-75
2021/10/30 07:08:37;;;;;;;23.30;21.40;;;7.10;99.90;;;;;;4974688;28;20502;-75
2021/10/30 07:11:04;;;;;;;21.77;19.97;;;7.50;99.90;;;;;;4974915;28;20447;-75
2021/10/30 07:13:31;;;;;;;21.33;19.73;;;7.70;99.90;;;;;;4974692;28;21004;-75
2021/10/30 07:15:59;;;;;;;21.90;20.17;;;8.10;99.90;;;;;;4974565;28;20514;-75
2021/10/30 07:18:25;;;;;;;20.73;18.97;;;8.60;99.90;;;;;;4974633;28;20822;-74
2021/10/30 07:20:52;;;;;;;19.47;18.17;;;8.80;99.90;;;;;;4974638;28;20937;-75
2021/10/30 07:23:19;;;;;;;20.57;18.77;;;9.20;99.90;;;;;;4974743;28;20448;-74
2021/10/30 07:25:45;;;;;;;21.00;19.40;;;9.50;99.90;;;;;;4974647;28;20466;-75
2021/10/30 07:28:12;;;;;;;20.40;19.00;;;10.00;99.90;;;;;;4974448;28;20856;-76
2021/10/30 07:30:39;;;;;;;21.10;19.50;;;10.20;99.90;;;;;;4974296;28;21009;-75
2021/10/30 07:33:07;;;;;;;20.83;19.43;;;10.30;99.90;;;;;;4974409;28;20492;-75
2021/10/30 07:35:34;;;;;;;21.50;19.70;;;10.50;99.90;;;;;;4974771;28;20822;-75
2021/10/30 07:38:01;;;;;;;21.43;19.83;;;10.20;99.90;;;;;;4974107;28;20558;-75
2021/10/30 07:40:29;;;;;;;20.57;19.00;;;10.10;99.90;;;;;;4974142;28;20451;-75
2021/10/30 07:42:56;;;;;;;21.90;20.30;;;10.00;99.90;;;;;;4974198;28;20799;-76
2021/10/30 07:45:23;;;;;;;20.53;19.10;;;10.10;99.90;;;;;;4974002;28;20458;-75
2021/10/30 07:47:50;;;;;;;20.10;18.60;;;10.40;99.90;;;;;;4974232;28;20452;-75
2021/10/30 07:50:18;;;;;;;20.03;18.33;;;10.20;99.90;;;;;;4973953;28;20451;-76
2021/10/30 07:52:45;;;;;;;19.10;17.60;;;10.00;99.90;;;;;;4973948;28;20455;-75
2021/10/30 07:55:11;;;;;;;19.27;17.97;;;9.90;99.90;;;;;;4973775;28;20600;-75
2021/10/30 07:57:38;;;;;;;20.60;19.10;;;9.80;99.90;;;;;;4973592;28;20521;-74
2021/10/30 08:00:07;;;;;;;21.20;19.67;;;9.70;99.90;;;;;;4973746;28;20459;-75
2021/10/30 08:02:34;;;;;;;20.80;19.20;;;9.70;99.90;;;;;;4974003;28;20452;-75
2021/10/30 08:05:01;;;;;;;20.40;18.90;;;9.90;99.90;;;;;;4973570;28;20462;-75
2021/10/30 08:07:29;;;;;;;21.77;19.67;;;10.00;99.90;;;;;;4973456;28;20440;-75
2021/10/30 08:09:55;;;;;;;19.70;18.23;;;10.10;99.90;;;;;;4973540;28;20455;-75
2021/10/30 08:12:22;;;;;;;20.10;18.40;;;10.30;99.90;;;;;;4972819;28;20490;-75
2021/10/30 08:14:49;;;;;;;20.97;19.10;;;10.10;99.90;;;;;;4973662;28;20654;-75
2021/10/30 08:17:15;;;;;;;21.90;20.10;;;10.50;99.90;;;;;;4973291;28;20550;-75
2021/10/30 08:19:42;;;;;;;21.70;20.03;;;10.70;99.90;;;;;;4973337;28;20466;-75
2021/10/30 08:22:09;;;;;;;19.47;18.10;;;11.30;99.90;;;;;;4973391;28;20452;-75
2021/10/30 08:24:37;;;;;;;19.93;18.53;;;11.70;99.90;;;;;;4973480;28;20576;-75
2021/10/30 08:27:04;;;;;;;21.20;19.60;;;12.30;99.90;;;;;;4973504;28;20485;-74
2021/10/30 08:29:31;;;;;;;21.73;19.97;;;12.20;99.90;;;;;;4972970;28;20447;-75
2021/10/30 08:32:00;;;;;;;20.70;19.30;;;11.90;99.90;;;;;;4972686;28;20842;-75
2021/10/30 08:34:27;;;;;;;20.73;19.17;;;11.80;99.90;;;;;;4973000;28;20518;-75
2021/10/30 08:36:54;;;;;;;21.10;19.30;;;11.70;99.90;;;;;;4972894;28;20900;-75
2021/10/30 08:39:21;;;;;;;21.40;19.43;;;11.60;99.90;;;;;;4973235;28;20883;-74
2021/10/30 08:41:49;;;;;;;21.60;19.90;;;11.20;99.90;;;;;;4972958;28;20853;-75
2021/10/30 08:44:15;;;;;;;22.13;20.37;;;11.30;99.90;;;;;;4972904;28;20448;-74
2021/10/30 08:46:42;;;;;;;20.23;18.67;;;11.20;99.90;;;;;;4972647;28;20452;-74
2021/10/30 08:49:10;;;;;;;22.00;20.30;;;11.20;99.90;;;;;;4972656;28;20873;-75
2021/10/30 08:51:40;;;;;;;21.40;19.60;;;11.10;99.90;;;;;;4972843;28;20487;-75
2021/10/30 08:54:07;;;;;;;21.93;20.27;;;10.90;99.90;;;;;;4972940;28;20789;-74
2021/10/30 08:56:34;;;;;;;20.83;19.33;;;11.10;99.90;;;;;;4972814;28;20935;-74
2021/10/30 08:59:02;;;;;;;20.03;18.57;;;11.20;99.90;;;;;;4972526;28;20459;-75
2021/10/30 09:01:28;;;;;;;23.03;20.97;;;11.30;99.90;;;;;;4972501;28;20455;-74
2021/10/30 09:03:58;;;;;;;21.63;20.07;;;11.30;99.90;;;;;;4972483;28;20467;-75
2021/10/30 09:06:32;;;;;;;19.70;18.40;;;11.70;99.90;;;;;;4972380;28;20969;-75
2021/10/30 09:09:05;;;;;;;20.50;19.00;;;12.30;99.90;;;;;;4972472;28;20455;-75
2021/10/30 09:11:32;;;;;;;20.43;19.13;;;12.70;99.90;;;;;;4972480;28;20451;-75
2021/10/30 09:13:59;;;;;;;20.07;18.67;;;13.20;99.90;;;;;;4972154;28;20620;-75
2021/10/30 09:16:27;;;;;;;20.40;18.77;;;13.60;99.90;;;;;;4971993;28;20499;-75
2021/10/30 09:18:54;;;;;;;20.60;19.00;;;13.70;99.90;;;;;;4972240;28;20491;-74
2021/10/30 09:21:21;;;;;;;23.40;21.40;;;13.90;99.90;;;;;;4972447;28;20843;-75
2021/10/30 09:23:58;;;;;;;20.63;18.83;;;13.90;99.90;;;;;;4972429;28;20456;-75
2021/10/30 09:26:26;;;;;;;22.40;20.70;;;13.80;99.90;;;;;;4972094;28;20458;-75
2021/10/30 09:28:55;;;;;;;21.13;19.63;;;13.40;99.90;;;;;;4972188;28;20458;-75
2021/10/30 09:31:23;;;;;;;20.67;19.07;;;13.20;99.90;;;;;;4971833;28;20498;-75
2021/10/30 09:33:52;;;;;;;21.00;19.20;;;13.10;99.90;;;;;;4972125;28;20526;-75
2021/10/30 09:36:20;;;;;;;21.27;19.43;;;13.20;99.90;;;;;;4972228;28;20459;-75
2021/10/30 09:38:52;;;;;;;22.40;20.90;;;13.00;99.90;;;;;;4972022;28;20483;-75
2021/10/30 09:41:24;;;;;;;21.43;19.63;;;13.30;99.90;;;;;;4972195;28;20788;-74
2021/10/30 09:43:57;;;;;;;22.90;21.00;;;13.10;99.90;;;;;;4971823;28;20455;-75
2021/10/30 09:46:24;;;;;;;23.47;21.70;;;13.00;99.90;;;;;;4971725;28;20459;-74
2021/10/30 09:48:54;;;;;;;21.70;20.10;;;13.10;99.90;;;;;;4971817;28;20451;-75
2021/10/30 09:51:34;;;;;;;22.43;20.83;;;12.90;99.90;;;;;;4971769;28;20547;-75
2021/10/30 09:54:04;;;;;;;21.60;20.17;;;12.90;99.90;;;;;;4971518;28;20886;-75
2021/10/30 09:56:40;;;;;;;21.73;19.73;;;12.60;99.90;;;;;;4971404;28;20459;-75
2021/10/30 09:59:11;;;;;;;19.93;18.40;;;12.70;99.90;;;;;;4971545;28;20478;-75
2021/10/30 10:01:38;;;;;;;20.93;19.10;;;12.80;99.90;;;;;;4971527;28;20490;-73
2021/10/30 10:04:08;;;;;;;23.83;21.73;;;12.80;99.90;;;;;;4971700;28;20463;-75
2021/10/30 10:06:35;;;;;;;21.33;19.73;;;12.70;99.90;;;;;;4971584;28;20464;-76
2021/10/30 10:09:03;;;;;;;22.17;20.40;;;12.60;99.90;;;;;;4971456;28;20868;-74
2021/10/30 10:11:30;;;;;;;23.60;21.30;;;12.70;99.90;;;;;;4971363;28;20463;-76
2021/10/30 10:13:58;;;;;;;22.70;20.80;;;12.50;99.90;;;;;;4971510;28;20447;-75
2021/10/30 10:16:26;;;;;;;22.60;20.93;;;12.70;99.90;;;;;;4971318;28;20930;-75
2021/10/30 10:18:54;;;;;;;20.33;18.83;;;12.80;99.90;;;;;;4971095;28;20494;-76
2021/10/30 10:21:26;;;;;;;22.10;20.27;;;12.80;99.90;;;;;;4971504;28;20474;-75
2021/10/30 10:23:53;;;;;;;23.40;21.40;;;12.70;99.90;;;;;;4971440;28;20894;-76
2021/10/30 10:26:31;;;;;;;21.87;20.33;;;12.70;99.90;;;;;;4971311;28;20605;-76
2021/10/30 10:29:04;;;;;;;22.77;21.00;;;12.70;99.90;;;;;;4971203;28;20474;-75
2021/10/30 10:31:30;;;;;;;23.33;21.30;;;12.70;99.90;;;;;;4971017;28;20515;-76
2021/10/30 10:34:10;;;;;;;22.37;20.67;;;12.90;99.90;;;;;;4971087;28;20459;-75
2021/10/30 10:36:39;;;;;;;21.83;19.90;;;12.90;99.90;;;;;;4970861;28;20491;-75
2021/10/30 10:39:18;;;;;;;21.70;20.10;;;12.50;99.90;;;;;;4971544;28;20495;-76
2021/10/30 10:41:58;;;;;;;21.20;19.57;;;12.70;99.90;;;;;;4971117;28;20470;-75
2021/10/30 10:44:59;;;;;;;21.70;19.90;;;12.70;99.90;;;;;;4970899;28;20854;-75
2021/10/30 10:48:05;;;;;;;21.37;19.63;;;12.90;99.90;;;;;;4970978;28;20767;-76
2021/10/30 10:50:39;;;;;;;23.17;20.93;;;13.00;99.90;;;;;;4971020;28;20786;-76
2021/10/30 10:53:21;;;;;;;22.20;20.50;;;12.90;99.90;;;;;;4971034;28;20510;-75
2021/10/30 10:56:08;;;;;;;23.40;21.40;;;12.90;99.90;;;;;;4971052;28;20455;-75
2021/10/30 10:59:19;;;;;;;20.57;19.03;;;13.10;99.90;;;;;;4970999;28;20936;-76
2021/10/30 11:02:16;;;;;;;21.87;20.27;;;13.00;99.90;;;;;;4970739;28;20443;-75
2021/10/30 11:04:58;;;;;;;21.27;19.67;;;12.90;99.90;;;;;;4970712;28;21021;-76
2021/10/30 11:07:25;;;;;;;23.37;21.30;;;13.10;99.90;;;;;;4970644;28;20451;-76
2021/10/30 11:09:56;;;;;;;22.63;20.90;;;13.10;99.90;;;;;;4971103;28;20452;-75
2021/10/30 11:12:25;;;;;;;22.70;20.90;;;13.00;99.90;;;;;;4971018;28;20463;-73
2021/10/30 11:15:02;;;;;;;23.97;21.93;;;13.00;99.90;;;;;;4970735;28;20824;-74
2021/10/30 11:17:35;;;;;;;22.30;20.70;;;12.80;99.90;;;;;;4970684;28;21092;-73
2021/10/30 11:20:10;;;;;;;21.83;20.23;;;12.70;99.90;;;;;;4970702;28;20456;-74
2021/10/30 11:22:37;;;;;;;22.17;20.33;;;12.80;99.90;;;;;;4970871;28;20823;-74
2021/10/30 11:25:09;;;;;;;22.90;20.60;;;12.80;99.90;;;;;;4970978;28;20459;-74
2021/10/30 11:27:50;;;;;;;22.10;20.40;;;12.80;99.90;;;;;;4970856;28;20876;-74
2021/10/30 11:30:17;;;;;;;24.63;22.57;;;12.80;99.90;;;;;;4970254;28;20479;-73
2021/10/30 11:32:43;;;;;;;24.93;22.90;;;12.60;99.90;;;;;;4970447;28;20491;-73
2021/10/30 11:35:12;;;;;;;24.07;22.17;;;12.60;99.90;;;;;;4970411;28;20957;-74
2021/10/30 11:37:39;;;;;;;24.10;22.33;;;12.60;99.90;;;;;;4970466;28;20483;-75
2021/10/30 11:40:09;;;;;;;25.17;23.00;;;12.80;99.90;;;;;;4970635;28;20530;-74
2021/10/30 11:42:42;;;;;;;24.90;22.73;;;12.80;99.90;;;;;;4970960;28;20443;-75
2021/10/30 11:45:09;;;;;;;25.17;23.37;;;12.80;99.90;;;;;;4970211;28;20962;-74
2021/10/30 11:47:35;;;;;;;21.90;20.20;;;12.90;99.90;;;;;;4971658;28;20451;-75
2021/10/30 11:50:08;;;;;;;22.70;20.80;;;13.00;99.90;;;;;;4974112;28;20498;-74
2021/10/30 11:52:35;;;;;;;24.87;22.77;;;13.10;99.90;;;;;;4974144;28;20455;-75
2021/10/30 11:55:02;;;;;;;24.20;22.33;;;13.10;99.90;;;;;;4973889;28;20459;-74
2021/10/30 11:57:30;;;;;;;24.83;23.00;;;13.20;99.90;;;;;;4973609;28;20455;-73
2021/10/30 11:59:58;;;;;;;25.20;23.10;;;13.10;99.90;;;;;;4973518;28;20502;-73
2021/10/30 12:02:25;;;;;;;25.03;22.93;;;12.90;99.90;;;;;;4973639;28;20459;-74
2021/10/30 12:04:51;;;;;;;24.00;22.30;;;12.80;99.90;;;;;;4973665;28;20456;-74
2021/10/30 12:07:19;;;;;;;29.40;26.87;;;12.40;99.90;;;;;;4973757;28;20555;-76
2021/10/30 12:09:47;;;;;;;32.67;30.17;;;12.30;99.90;;;;;;4973375;28;20862;-73
2021/10/30 12:12:22;;;;;;;35.30;32.90;;;12.00;99.90;;;;;;4973474;28;20444;-75
2021/10/30 12:14:52;;;;;;;44.63;41.63;;;11.40;99.90;;;;;;4973637;28;20649;-74
2021/10/30 12:17:21;;;;;;;45.40;42.10;;;11.10;99.90;;;;;;4973593;28;20452;-73
2021/10/30 12:19:54;;;;;;;46.17;42.87;;;10.90;99.90;;;;;;4973504;28;20487;-74
2021/10/30 12:22:22;;;;;;;45.97;42.87;;;10.70;99.90;;;;;;4973759;28;20456;-75
2021/10/30 12:24:58;;;;;;;45.87;42.63;;;10.70;99.90;;;;;;4973505;28;20856;-74
2021/10/30 12:27:25;;;;;;;47.20;43.87;;;10.80;99.90;;;;;;4973374;28;20570;-72
2021/10/30 12:29:53;;;;;;;47.77;44.10;;;10.80;99.90;;;;;;4973405;28;20483;-72
2021/10/30 12:32:23;;;;;;;45.90;42.50;;;10.80;99.90;;;;;;4973348;28;20483;-72
2021/10/30 12:34:59;;;;;;;46.90;43.40;;;10.80;99.90;;;;;;4973450;28;20455;-71
2021/10/30 12:37:30;;;;;;;46.87;43.33;;;10.60;99.90;;;;;;4973114;28;20482;-72
2021/10/30 12:39:59;;;;;;;48.07;44.33;;;10.60;99.90;;;;;;4973014;28;20594;-73
2021/10/30 12:42:26;;;;;;;46.67;42.87;;;10.50;99.90;;;;;;4973175;28;20477;-72
2021/10/30 12:44:55;;;;;;;45.03;41.63;;;10.40;99.90;;;;;;4973033;28;20796;-73
2021/10/30 12:47:25;;;;;;;45.97;42.67;;;10.50;99.90;;;;;;4973241;28;20454;-72
2021/10/30 12:49:56;;;;;;;45.03;41.77;;;10.40;99.90;;;;;;4973372;28;20499;-73
2021/10/30 12:52:23;;;;;;;45.07;41.90;;;10.50;99.90;;;;;;4973128;28;20487;-72
2021/10/30 12:54:54;;;;;;;43.77;40.77;;;10.60;99.90;;;;;;4973061;28;20456;-72
2021/10/30 12:57:22;;;;;;;46.17;43.00;;;10.70;99.90;;;;;;4973225;28;20954;-72
2021/10/30 13:00:01;;;;;;;46.13;42.83;;;10.80;99.90;;;;;;4972433;28;20487;-72
2021/10/30 13:02:28;;;;;;;46.70;43.37;;;10.70;99.90;;;;;;4972900;28;21058;-72
2021/10/30 13:04:55;;;;;;;48.30;44.53;;;10.70;99.90;;;;;;4972586;28;20873;-72
2021/10/30 13:07:22;;;;;;;46.97;43.30;;;10.70;99.90;;;;;;4972826;28;20452;-72
2021/10/30 13:09:56;;;;;;;47.47;44.10;;;10.70;99.90;;;;;;4972912;28;20459;-73
2021/10/30 13:12:23;;;;;;;48.53;44.63;;;10.60;99.90;;;;;;4972731;28;20533;-73
2021/10/30 13:14:49;;;;;;;48.67;45.07;;;10.60;99.90;;;;;;4972716;28;20460;-73
2021/10/30 13:17:17;;;;;;;46.13;42.83;;;10.60;99.90;;;;;;4972405;28;20456;-72
2021/10/30 13:19:44;;;;;;;47.23;43.83;;;10.60;99.90;;;;;;4972411;28;20488;-72
2021/10/30 13:22:11;;;;;;;47.80;44.20;;;10.60;99.90;;;;;;4972243;28;20491;-73
2021/10/30 13:24:39;;;;;;;48.40;45.10;;;10.50;99.90;;;;;;4972366;28;20451;-72
2021/10/30 13:27:06;;;;;;;46.00;42.70;;;10.50;99.90;;;;;;4972226;28;20487;-73
2021/10/30 13:29:33;;;;;;;49.40;45.60;;;10.30;99.90;;;;;;4972320;28;20787;-72
2021/10/30 13:32:00;;;;;;;47.13;43.73;;;10.40;99.90;;;;;;4971853;28;20491;-71
2021/10/30 13:34:28;;;;;;;46.10;42.60;;;10.40;99.90;;;;;;4972092;28;20452;-72
2021/10/30 13:36:55;;;;;;;48.27;44.67;;;10.30;99.90;;;;;;4972150;28;20452;-71
2021/10/30 13:39:22;;;;;;;49.47;45.87;;;10.20;99.90;;;;;;4972199;28;20491;-72
2021/10/30 13:41:48;;;;;;;47.70;44.40;;;10.30;99.90;;;;;;4972112;28;20475;-70
2021/10/30 13:44:15;;;;;;;50.83;47.03;;;10.20;99.90;;;;;;4971945;28;20483;-70
2021/10/30 13:46:42;;;;;;;48.87;45.30;;;10.30;99.90;;;;;;4971905;28;20482;-71
2021/10/30 13:49:10;;;;;;;48.97;44.83;;;10.40;99.90;;;;;;4971850;28;20458;-72
2021/10/30 13:51:38;;;;;;;49.43;45.93;;;10.50;99.90;;;;;;4971940;28;20483;-71
2021/10/30 13:54:05;;;;;;;50.07;46.27;;;10.50;99.90;;;;;;4972056;28;20458;-71
2021/10/30 13:56:32;;;;;;;49.87;46.17;;;10.50;99.90;;;;;;4971596;28;20454;-71
2021/10/30 13:58:58;;;;;;;49.73;46.07;;;10.40;99.90;;;;;;4971797;28;20500;-71
2021/10/30 14:01:26;;;;;;;49.13;45.43;;;10.40;99.90;;;;;;4971560;28;20466;-71
2021/10/30 14:03:53;;;;;;;48.30;44.80;;;10.40;99.90;;;;;;4971803;28;20535;-71
2021/10/30 14:06:20;;;;;;;49.40;45.73;;;10.40;99.90;;;;;;4971680;28;20459;-71
2021/10/30 14:08:48;;;;;;;46.10;42.73;;;10.40;99.90;;;;;;4971569;28;20459;-72
2021/10/30 14:11:15;;;;;;;43.97;40.80;;;10.40;99.90;;;;;;4970850;28;20885;-73
2021/10/30 14:13:42;;;;;;;45.70;42.50;;;10.40;99.90;;;;;;4971521;28;20452;-72
2021/10/30 14:16:11;;;;;;;47.47;44.17;;;10.30;99.90;;;;;;4971386;28;20806;-73
2021/10/30 14:18:39;;;;;;;42.97;39.97;;;10.30;99.90;;;;;;4971250;28;20538;-73
2021/10/30 14:21:06;;;;;;;41.73;38.80;;;10.20;99.90;;;;;;4971621;28;20447;-73
2021/10/30 14:23:34;;;;;;;46.80;43.30;;;10.20;99.90;;;;;;4971640;28;20450;-74
2021/10/30 14:26:03;;;;;;;43.93;40.43;;;10.10;99.90;;;;;;4971453;28;20460;-73
2021/10/30 14:28:30;;;;;;;41.57;38.20;;;10.10;99.90;;;;;;4971123;28;20552;-73
2021/10/30 14:30:59;;;;;;;39.63;36.73;;;10.10;99.90;;;;;;4970929;28;21009;-73
2021/10/30 14:33:25;;;;;;;38.20;35.40;;;10.10;99.90;;;;;;4971166;28;20459;-73
2021/10/30 14:35:52;;;;;;;33.27;30.70;;;10.10;99.90;;;;;;4971374;28;20451;-73
2021/10/30 14:38:19;;;;;;;32.50;29.77;;;9.90;99.90;;;;;;4971279;28;20456;-73
2021/10/30 14:40:48;;;;;;;29.23;27.20;;;10.00;99.90;;;;;;4971014;28;20451;-73
2021/10/30 14:43:17;;;;;;;29.60;27.20;;;10.10;99.90;;;;;;4971020;28;20456;-73
2021/10/30 14:45:44;;;;;;;29.73;27.53;;;10.20;99.90;;;;;;4971111;28;20454;-73
2021/10/30 14:48:11;;;;;;;29.93;27.40;;;10.20;99.90;;;;;;4970920;28;20474;-72
2021/10/30 14:50:39;;;;;;;27.43;25.33;;;10.30;99.90;;;;;;4971180;28;20871;-72
2021/10/30 14:53:08;;;;;;;27.07;24.97;;;10.30;99.90;;;;;;4971424;28;20486;-74
2021/10/30 14:55:35;;;;;;;26.93;24.77;;;10.40;99.90;;;;;;4971087;28;20466;-74
2021/10/30 14:58:02;;;;;;;27.20;25.20;;;10.50;99.90;;;;;;4970977;28;20460;-72
2021/10/30 15:00:30;;;;;;;27.80;25.70;;;10.50;99.90;;;;;;4970765;28;20490;-73
2021/10/30 15:02:57;;;;;;;25.77;24.03;;;10.60;99.90;;;;;;4970797;28;20964;-73
2021/10/30 15:05:24;;;;;;;25.40;23.40;;;10.60;99.90;;;;;;4970947;28;20458;-73
2021/10/30 15:07:51;;;;;;;24.33;22.63;;;10.60;99.90;;;;;;4971119;28;20885;-73
2021/10/30 15:10:17;;;;;;;27.83;25.70;;;10.60;99.90;;;;;;4970939;28;20458;-74
2021/10/30 15:12:44;;;;;;;27.10;24.90;;;10.70;99.90;;;;;;4970955;28;20456;-73
2021/10/30 15:15:11;;;;;;;24.57;22.80;;;10.70;99.90;;;;;;4970679;28;20454;-73
2021/10/30 15:17:40;;;;;;;26.90;24.83;;;10.70;99.90;;;;;;4970821;28;20498;-74
2021/10/30 15:20:09;;;;;;;26.47;24.67;;;10.70;99.90;;;;;;4970878;28;20496;-73
2021/10/30 15:22:37;;;;;;;26.30;24.50;;;10.60;99.90;;;;;;4973687;28;20491;-73
2021/10/30 15:25:04;;;;;;;27.33;25.43;;;10.60;99.90;;;;;;4974722;28;20459;-74
2021/10/30 15:27:31;;;;;;;26.20;24.10;;;10.60;99.90;;;;;;4974482;28;20506;-73
2021/10/30 15:29:58;;;;;;;25.53;23.60;;;10.60;99.90;;;;;;4974218;28;20463;-74
2021/10/30 15:32:25;;;;;;;25.83;23.80;;;10.60;99.90;;;;;;4974175;28;20490;-74
2021/10/30 15:34:55;;;;;;;26.97;24.63;;;10.70;99.90;;;;;;4974516;28;20801;-73
2021/10/30 15:37:23;;;;;;;24.93;23.13;;;10.70;99.90;;;;;;4974481;28;20522;-73
2021/10/30 15:39:51;;;;;;;27.10;25.10;;;10.80;99.90;;;;;;4974420;28;20896;-73
2021/10/30 15:42:17;;;;;;;27.27;25.17;;;10.80;99.90;;;;;;4974361;28;20455;-72
2021/10/30 15:44:44;;;;;;;27.30;25.20;;;10.80;99.90;;;;;;4974140;28;20463;-74
2021/10/30 15:47:11;;;;;;;27.20;24.90;;;10.80;99.90;;;;;;4974022;28;20837;-73
2021/10/30 15:49:37;;;;;;;26.83;24.90;;;10.80;99.90;;;;;;4974172;28;20443;-73
2021/10/30 15:52:07;;;;;;;26.00;24.17;;;10.70;99.90;;;;;;4974208;28;20502;-73
2021/10/30 15:54:34;;;;;;;27.97;25.87;;;10.70;99.90;;;;;;4974161;28;20462;-74
2021/10/30 15:57:04;;;;;;;27.67;25.60;;;10.70;99.90;;;;;;4973915;28;20458;-73
2021/10/30 15:59:30;;;;;;;28.77;26.33;;;10.80;99.90;;;;;;4973719;28;20534;-73
2021/10/30 16:01:57;;;;;;;28.13;25.97;;;10.80;99.90;;;;;;4973878;28;20506;-73
2021/10/30 16:04:23;;;;;;;27.33;25.33;;;10.80;99.90;;;;;;4973757;28;20493;-72
2021/10/30 16:06:55;;;;;;;28.50;26.10;;;10.80;99.90;;;;;;4974008;28;20496;-72
2021/10/30 16:09:23;;;;;;;28.03;25.43;;;10.80;99.90;;;;;;4973914;28;20460;-72
2021/10/30 16:11:51;;;;;;;27.53;25.43;;;10.70;99.90;;;;;;4973718;28;20455;-73
2021/10/30 16:14:18;;;;;;;29.53;26.57;;;10.80;99.90;;;;;;4973614;28;20452;-72
2021/10/30 16:16:45;;;;;;;28.67;26.57;;;10.80;99.90;;;;;;4973465;28;20459;-73
2021/10/30 16:19:11;;;;;;;27.93;26.03;;;10.80;99.90;;;;;;4973528;28;21137;-73
2021/10/30 16:21:38;;;;;;;26.43;24.00;;;10.90;99.90;;;;;;4973437;28;20938;-73
2021/10/30 16:24:05;;;;;;;26.93;24.63;;;10.90;99.90;;;;;;4973668;28;20455;-73
2021/10/30 16:26:35;;;;;;;27.57;25.33;;;10.90;99.90;;;;;;4973392;28;20455;-73
2021/10/30 16:29:02;;;;;;;27.00;24.80;;;10.90;99.90;;;;;;4973337;28;20452;-73
2021/10/30 16:31:30;;;;;;;25.87;23.73;;;11.00;99.90;;;;;;4973168;28;20491;-73
2021/10/30 16:33:59;;;;;;;26.33;24.33;;;11.00;99.90;;;;;;4972558;28;20656;-72
2021/10/30 16:36:26;;;;;;;27.10;25.03;;;11.00;99.90;;;;;;4973120;28;20462;-74
2021/10/30 16:38:52;;;;;;;27.17;25.17;;;11.00;99.90;;;;;;4973264;28;20855;-73
2021/10/30 16:41:19;;;;;;;28.87;26.57;;;11.00;99.90;;;;;;4973462;28;20955;-73
2021/10/30 16:43:47;;;;;;;26.57;24.30;;;11.00;99.90;;;;;;4972987;28;20452;-73
2021/10/30 16:46:14;;;;;;;28.00;25.70;;;10.90;99.90;;;;;;4973051;28;20452;-73
2021/10/30 16:48:41;;;;;;;30.63;27.80;;;10.90;99.90;;;;;;4972876;28;20459;-73
2021/10/30 16:51:08;;;;;;;29.10;26.70;;;10.90;99.90;;;;;;4972816;28;20451;-73
2021/10/30 16:53:34;;;;;;;30.23;27.73;;;10.90;99.90;;;;;;4973255;28;20537;-73
2021/10/30 16:56:02;;;;;;;28.90;26.90;;;11.00;99.90;;;;;;4972841;28;20458;-73
2021/10/30 16:58:28;;;;;;;31.03;28.50;;;11.00;99.90;;;;;;4972735;28;21047;-73
2021/10/30 17:00:56;;;;;;;31.03;27.97;;;11.10;99.90;;;;;;4972578;28;20495;-73
2021/10/30 17:03:23;;;;;;;31.20;28.80;;;11.10;99.90;;;;;;4972900;28;20514;-73
2021/10/30 17:05:50;;;;;;;30.20;27.90;;;11.20;99.90;;;;;;4973153;28;20463;-73
2021/10/30 17:08:18;;;;;;;28.50;26.30;;;11.10;99.90;;;;;;4972801;28;20530;-73
2021/10/30 17:10:45;;;;;;;30.00;27.53;;;11.00;99.90;;;;;;4972379;28;20844;-74
2021/10/30 17:13:11;;;;;;;29.53;27.10;;;11.10;99.90;;;;;;4971208;28;20506;-73
2021/10/30 17:15:38;;;;;;;29.47;26.90;;;11.10;99.90;;;;;;4973367;28;20485;-76
2021/10/30 17:18:06;;;;;;;30.60;28.00;;;11.10;99.90;;;;;;4973591;28;20455;-79
2021/10/30 17:20:33;;;;;;;28.37;26.07;;;11.20;99.90;;;;;;4973448;28;20494;-79
2021/10/30 17:23:01;;;;;;;29.60;27.10;;;11.20;99.90;;;;;;4973245;28;20458;-77
2021/10/30 17:25:28;;;;;;;30.80;28.37;;;11.20;99.90;;;;;;4973146;28;20455;-75
2021/10/30 17:27:55;;;;;;;29.40;27.03;;;11.20;99.90;;;;;;4973102;28;20973;-76
2021/10/30 17:30:23;;;;;;;28.17;25.80;;;11.20;99.90;;;;;;4973110;28;20569;-76
2021/10/30 17:32:51;;;;;;;28.00;25.87;;;11.10;99.90;;;;;;4973124;28;20514;-76
2021/10/30 17:35:20;;;;;;;30.40;28.20;;;11.10;99.90;;;;;;4973042;28;20530;-76
2021/10/30 17:37:47;;;;;;;28.93;26.67;;;11.10;99.90;;;;;;4988172;28;20473;-77
2021/10/30 17:40:14;;;;;;;31.50;29.00;;;11.10;99.90;;;;;;4992423;28;20861;-76
2021/10/30 17:42:41;;;;;;;29.67;27.27;;;11.20;99.90;;;;;;4992340;28;20458;-76
2021/10/30 17:45:10;;;;;;;29.50;27.20;;;11.20;99.90;;;;;;4991546;28;20931;-77
2021/10/30 17:47:37;;;;;;;31.87;29.07;;;11.20;99.90;;;;;;4992441;28;20463;-76
2021/10/30 17:50:04;;;;;;;30.60;27.90;;;11.20;99.90;;;;;;4992393;28;20482;-76
2021/10/30 17:52:33;;;;;;;31.90;29.07;;;11.20;99.90;;;;;;4992207;28;20466;-76
2021/10/30 17:55:01;;;;;;;30.90;28.47;;;11.20;99.90;;;;;;4991908;28;20457;-75
2021/10/30 17:57:28;;;;;;;30.10;27.60;;;11.20;99.90;;;;;;4991938;28;20466;-76
2021/10/30 17:59:54;;;;;;;30.57;27.87;;;11.20;99.90;;;;;;4991839;28;20525;-75
2021/10/30 18:02:21;;;;;;;28.57;26.33;;;11.20;99.90;;;;;;4992287;28;20504;-76
2021/10/30 18:04:48;;;;;;;28.73;26.43;;;11.20;99.90;;;;;;4992199;28;20901;-76
2021/10/30 18:07:15;;;;;;;28.63;26.43;;;11.30;99.90;;;;;;4991966;28;20466;-76